createdAt,value
2018-12-02T00:02:06.045Z,97.10
2018-12-02T00:04:37.823Z,96.90
2018-12-02T00:07:23.753Z,96.70
2018-12-02T00:09:53.470Z,96.50
2018-12-02T00:12:23.269Z,96.50
2018-12-02T00:14:52.954Z,96.40
2018-12-02T00:17:22.953Z,96.30
2018-12-02T00:19:52.752Z,96.20
2018-12-02T00:22:22.540Z,96.10
2018-12-02T00:24:52.369Z,96.00
2018-12-02T00:27:22.107Z,95.90
2018-12-02T00:29:51.750Z,95.80
2018-12-02T00:32:21.582Z,95.80
2018-12-02T00:34:51.280Z,95.70
2018-12-02T00:37:21.545Z,95.60
2018-12-02T00:39:51.838Z,95.50
2018-12-02T00:42:21.613Z,95.40
2018-12-02T00:44:51.898Z,95.30
2018-12-02T00:47:21.693Z,95.30
2018-12-02T00:52:49.601Z,95.30
2018-12-02T00:55:36.136Z,95.20
2018-12-02T00:58:06.076Z,95.10
2018-12-02T01:00:36.053Z,95.00
2018-12-02T01:03:07.036Z,95.00
2018-12-02T01:05:36.584Z,94.90
2018-12-02T01:08:07.358Z,94.90
2018-12-02T01:10:37.396Z,94.70
2018-12-02T01:13:09.983Z,94.60
2018-12-02T01:15:42.146Z,94.60
2018-12-02T01:18:13.429Z,94.40
2018-12-02T01:20:45.595Z,94.20
2018-12-02T01:23:17.823Z,94.00
2018-12-02T01:25:47.169Z,93.90
2018-12-02T01:28:17.094Z,93.70
2018-12-02T01:30:46.469Z,93.60
2018-12-02T01:33:16.363Z,93.50
2018-12-02T01:35:45.756Z,93.40
2018-12-02T01:38:15.910Z,93.30
2018-12-02T01:40:48.270Z,93.20
2018-12-02T01:43:17.645Z,93.10
2018-12-02T01:45:47.591Z,93.00
2018-12-02T01:48:17.000Z,93.00
2018-12-02T01:50:46.412Z,92.90
2018-12-02T01:53:15.801Z,92.80
2018-12-02T01:55:45.743Z,92.80
2018-12-02T01:58:15.204Z,92.70
2018-12-02T02:00:45.164Z,92.80
2018-12-02T02:03:14.596Z,92.80
2018-12-02T02:05:43.940Z,92.80
2018-12-02T02:08:13.299Z,92.90
2018-12-02T02:10:43.232Z,92.90
2018-12-02T02:13:12.809Z,93.00
2018-12-02T02:15:42.235Z,93.00
2018-12-02T02:18:11.617Z,93.00
2018-12-02T02:20:41.517Z,93.30
2018-12-02T02:23:12.112Z,93.10
2018-12-02T02:25:49.977Z,93.20
2018-12-02T02:28:33.239Z,93.20
2018-12-02T02:31:02.597Z,93.30
2018-12-02T02:33:32.000Z,93.40
2018-12-02T02:36:01.397Z,93.40
2018-12-02T02:38:31.334Z,93.40
2018-12-02T02:41:00.751Z,93.60
2018-12-02T02:43:30.106Z,93.70
2018-12-02T02:45:59.807Z,93.80
2018-12-02T02:48:30.151Z,93.90
2018-12-02T02:50:59.665Z,94.00
2018-12-02T02:53:29.024Z,94.00
2018-12-02T02:55:58.974Z,94.10
2018-12-02T02:58:28.323Z,94.10
2018-12-02T03:00:57.707Z,94.00
2018-12-02T03:03:27.737Z,94.00
2018-12-02T03:05:59.852Z,93.90
2018-12-02T03:08:32.126Z,93.90
2018-12-02T03:11:04.675Z,93.90
2018-12-02T03:13:39.292Z,93.80
2018-12-02T03:16:18.967Z,93.70
2018-12-02T03:18:49.909Z,93.60
2018-12-02T03:21:20.867Z,93.70
2018-12-02T03:23:50.852Z,93.60
2018-12-02T03:26:20.255Z,93.30
2018-12-02T03:28:50.218Z,93.60
2018-12-02T03:31:19.565Z,93.60
2018-12-02T03:33:48.988Z,93.60
2018-12-02T03:36:18.943Z,93.50
2018-12-02T03:38:48.349Z,93.50
2018-12-02T03:41:17.841Z,93.40
2018-12-02T03:43:47.333Z,93.40
2018-12-02T03:46:16.704Z,93.50
2018-12-02T03:48:46.076Z,93.50
2018-12-02T03:51:16.172Z,93.40
2018-12-02T03:54:11.985Z,93.40
2018-12-02T03:56:45.545Z,93.60
2018-12-02T03:59:16.353Z,93.40
2018-12-02T04:01:46.375Z,93.20
2018-12-02T04:04:15.703Z,92.90
2018-12-02T04:06:44.778Z,92.70
2018-12-02T04:09:13.916Z,92.90
2018-12-02T04:11:43.395Z,92.70
2018-12-02T04:14:13.452Z,92.30
2018-12-02T04:16:47.447Z,92.20
2018-12-02T04:19:34.078Z,92.10
2018-12-02T04:22:03.471Z,92.00
2018-12-02T04:24:32.856Z,92.10
2018-12-02T04:27:02.370Z,92.20
2018-12-02T04:29:31.739Z,92.40
2018-12-02T04:32:01.675Z,92.50
2018-12-02T04:34:31.079Z,92.60
2018-12-02T04:37:01.207Z,92.80
2018-12-02T04:39:31.133Z,92.90
2018-12-02T04:42:00.556Z,93.10
2018-12-02T04:44:29.925Z,93.10
2018-12-02T04:46:59.507Z,93.30
2018-12-02T04:49:29.388Z,93.50
2018-12-02T04:51:59.386Z,93.70
2018-12-02T04:54:29.364Z,93.90
2018-12-02T04:56:58.719Z,94.10
2018-12-02T04:59:28.839Z,94.30
2018-12-02T05:01:58.209Z,94.20
2018-12-02T05:04:27.840Z,94.10
2018-12-02T05:06:57.328Z,94.30
2018-12-02T05:09:26.844Z,93.80
2018-12-02T05:11:56.360Z,93.70
2018-12-02T05:14:25.851Z,93.60
2018-12-02T05:16:55.545Z,93.60
2018-12-02T05:19:48.260Z,93.40
2018-12-02T05:22:17.605Z,93.30
2018-12-02T05:24:46.996Z,93.20
2018-12-02T05:27:16.907Z,93.10
2018-12-02T05:29:46.605Z,93.10
2018-12-02T05:32:16.015Z,93.20
2018-12-02T05:34:46.740Z,93.00
2018-12-02T05:37:16.145Z,93.10
2018-12-02T05:39:46.103Z,93.40
2018-12-02T05:42:20.732Z,93.40
2018-12-02T05:44:50.632Z,93.20
2018-12-02T05:47:20.043Z,93.10
2018-12-02T05:49:49.491Z,93.00
2018-12-02T05:52:18.619Z,93.00
2018-12-02T05:54:49.064Z,93.00
2018-12-02T05:57:19.992Z,93.20
2018-12-02T05:59:50.025Z,93.40
2018-12-02T06:02:42.806Z,93.50
2018-12-02T06:05:12.557Z,93.60
2018-12-02T06:07:41.939Z,93.50
2018-12-02T06:10:14.304Z,93.10
2018-12-02T06:12:43.732Z,92.60
2018-12-02T06:15:16.215Z,92.30
2018-12-02T06:17:46.164Z,91.90
2018-12-02T06:20:19.435Z,91.60
2018-12-02T06:22:50.322Z,91.30
2018-12-02T06:25:19.716Z,91.00
2018-12-02T06:27:49.672Z,90.80
2018-12-02T06:30:21.840Z,90.60
2018-12-02T06:32:55.074Z,90.40
2018-12-02T06:35:31.860Z,90.30
2018-12-02T06:40:45.211Z,90.10
2018-12-02T06:43:15.117Z,90.00
2018-12-02T06:45:44.493Z,90.00
2018-12-02T06:48:14.406Z,90.00
2018-12-02T06:50:44.315Z,89.80
2018-12-02T06:53:14.667Z,89.80
2018-12-02T06:55:48.960Z,89.50
2018-12-02T06:59:33.316Z,89.40
2018-12-02T07:03:13.172Z,89.30
2018-12-02T07:05:45.854Z,88.80
2018-12-02T07:08:15.223Z,88.50
2018-12-02T07:10:49.815Z,88.40
2018-12-02T07:13:42.620Z,88.40
2018-12-02T07:16:12.145Z,88.30
2018-12-02T07:18:43.475Z,88.30
2018-12-02T07:21:16.714Z,88.10
2018-12-02T07:23:50.967Z,88.00
2018-12-02T07:26:23.381Z,87.90
2018-12-02T07:28:54.614Z,87.70
2018-12-02T07:31:24.011Z,87.50
2018-12-02T07:33:58.823Z,87.20
2018-12-02T07:36:48.921Z,87.00
2018-12-02T07:40:38.183Z,86.90
2018-12-02T07:43:10.035Z,87.50
2018-12-02T07:45:39.541Z,87.50
2018-12-02T07:48:09.119Z,87.60
2018-12-02T07:50:40.149Z,88.10
2018-12-02T07:53:09.008Z,88.50
2018-12-02T07:55:38.428Z,88.90
2018-12-02T07:58:12.035Z,88.90
2018-12-02T08:00:41.467Z,88.50
2018-12-02T08:03:10.873Z,88.70
2018-12-02T08:05:40.901Z,88.20
2018-12-02T08:08:10.582Z,88.20
2018-12-02T08:10:39.990Z,88.10
2018-12-02T08:13:09.378Z,88.30
2018-12-02T08:15:38.762Z,88.50
2018-12-02T08:18:08.357Z,88.80
2018-12-02T08:20:39.061Z,89.10
2018-12-02T08:23:08.453Z,90.00
2018-12-02T08:25:37.810Z,90.10
2018-12-02T08:28:07.827Z,90.20
2018-12-02T08:30:37.258Z,90.30
2018-12-02T08:33:06.665Z,90.20
2018-12-02T08:35:37.864Z,90.10
2018-12-02T08:38:12.855Z,90.20
2018-12-02T08:40:51.036Z,90.10
2018-12-02T08:43:21.704Z,90.10
2018-12-02T08:45:51.096Z,90.30
2018-12-02T08:48:21.140Z,90.50
2018-12-02T08:50:50.604Z,90.60
2018-12-02T08:53:20.056Z,90.90
2018-12-02T08:55:49.520Z,90.80
2018-12-02T08:58:19.161Z,90.60
2018-12-02T09:00:48.579Z,90.70
2018-12-02T09:03:18.020Z,90.60
2018-12-02T09:05:47.436Z,90.30
2018-12-02T09:08:16.816Z,90.00
2018-12-02T09:10:46.389Z,90.00
2018-12-02T09:13:15.616Z,90.10
2018-12-02T09:15:45.647Z,89.60
2018-12-02T09:18:16.961Z,89.40
2018-12-02T09:20:49.043Z,89.50
2018-12-02T09:23:18.576Z,89.50
2018-12-02T09:25:56.386Z,89.30
2018-12-02T09:28:26.322Z,89.60
2018-12-02T09:30:56.306Z,89.50
2018-12-02T09:33:25.810Z,89.30
2018-12-02T09:35:55.778Z,89.50
2018-12-02T09:38:25.948Z,89.60
2018-12-02T09:40:55.403Z,89.80
2018-12-02T09:43:24.828Z,90.10
2018-12-02T09:45:54.824Z,90.10
2018-12-02T09:48:24.245Z,90.20
2018-12-02T09:50:54.273Z,90.30
2018-12-02T09:53:24.256Z,90.50
2018-12-02T09:56:24.464Z,90.50
2018-12-02T09:58:55.992Z,90.50
2018-12-02T10:01:25.391Z,90.40
2018-12-02T10:03:55.446Z,90.70
2018-12-02T10:06:25.403Z,91.10
2018-12-02T10:08:56.262Z,91.40
2018-12-02T10:11:26.194Z,91.60
2018-12-02T10:13:55.731Z,91.80
2018-12-02T10:16:25.734Z,92.20
2018-12-02T10:18:55.358Z,92.70
2018-12-02T10:21:25.372Z,93.20
2018-12-02T10:23:55.273Z,92.90
2018-12-02T10:26:24.933Z,92.70
2018-12-02T10:28:54.559Z,92.60
2018-12-02T10:31:24.074Z,92.50
2018-12-02T10:33:56.354Z,92.90
2018-12-02T10:36:26.888Z,93.70
2018-12-02T10:38:57.468Z,94.90
2018-12-02T10:41:28.110Z,95.60
2018-12-02T10:43:57.744Z,96.00
2018-12-02T10:46:27.272Z,96.30
2018-12-02T10:49:00.710Z,96.60
2018-12-02T10:51:30.712Z,96.80
2018-12-02T10:54:01.173Z,97.00
2018-12-02T10:56:32.534Z,97.10
2018-12-02T10:59:02.364Z,97.30
2018-12-02T11:01:37.753Z,97.40
2018-12-02T11:04:08.115Z,97.40
2018-12-02T11:06:37.869Z,97.40
2018-12-02T11:09:10.288Z,97.80
2018-12-02T11:11:39.792Z,98.10
2018-12-02T11:14:09.284Z,98.50
2018-12-02T11:16:39.246Z,99.00
2018-12-02T11:19:09.168Z,99.30
2018-12-02T11:21:39.856Z,99.70
2018-12-02T11:24:09.955Z,99.90
2018-12-02T11:26:43.274Z,99.90
2018-12-02T11:29:26.317Z,99.90
2018-12-02T11:32:01.746Z,99.90
2018-12-02T11:34:33.073Z,99.90
2018-12-02T11:37:04.513Z,99.90
2018-12-02T11:39:34.571Z,99.90
2018-12-02T11:42:04.795Z,99.90
2018-12-02T11:44:34.698Z,99.90
2018-12-02T11:47:04.355Z,99.90
2018-12-02T11:49:35.098Z,99.90
2018-12-02T11:52:04.809Z,99.90
2018-12-02T11:54:34.601Z,99.90
2018-12-02T11:57:06.565Z,99.90
2018-12-02T11:59:36.393Z,99.90
2018-12-02T12:02:07.768Z,99.90
2018-12-02T12:04:37.109Z,99.90
2018-12-02T12:07:07.510Z,99.90
2018-12-02T12:09:37.255Z,99.90
2018-12-02T12:12:07.220Z,99.90
2018-12-02T12:14:36.932Z,99.90
2018-12-02T12:17:06.840Z,99.90
2018-12-02T12:19:36.438Z,99.90
2018-12-02T12:22:06.980Z,99.90
2018-12-02T12:24:36.909Z,99.90
2018-12-02T12:27:06.572Z,99.90
2018-12-02T12:29:36.390Z,99.90
2018-12-02T12:32:06.562Z,99.90
2018-12-02T12:34:36.855Z,99.90
2018-12-02T12:37:07.147Z,99.90
2018-12-02T12:39:37.510Z,99.90
2018-12-02T12:42:07.325Z,99.90
2018-12-02T12:44:36.995Z,99.90
2018-12-02T12:47:11.545Z,99.90
2018-12-02T12:49:41.328Z,99.90
2018-12-02T12:52:11.199Z,99.90
2018-12-02T12:54:40.944Z,99.90
2018-12-02T12:57:11.051Z,99.90
2018-12-02T12:59:43.192Z,99.90
2018-12-02T13:02:20.296Z,99.90
2018-12-02T13:04:59.256Z,99.90
2018-12-02T13:07:29.850Z,99.90
2018-12-02T13:10:02.449Z,99.90
2018-12-02T13:12:32.142Z,99.90
2018-12-02T13:15:16.371Z,99.90
2018-12-02T13:18:03.584Z,99.90
2018-12-02T13:20:42.440Z,99.90
2018-12-02T13:23:13.023Z,99.90
2018-12-02T13:25:43.300Z,99.90
2018-12-02T13:28:12.998Z,99.90
2018-12-02T13:30:44.667Z,99.90
2018-12-02T13:33:15.562Z,99.90
2018-12-02T13:35:48.403Z,99.90
2018-12-02T13:38:19.419Z,99.90
2018-12-02T13:40:49.310Z,99.90
2018-12-02T13:43:21.084Z,99.90
2018-12-02T13:45:51.438Z,99.90
2018-12-02T13:48:21.285Z,99.90
2018-12-02T13:50:51.191Z,99.90
2018-12-02T13:53:36.980Z,99.90
2018-12-02T13:56:07.125Z,99.90
2018-12-02T13:58:36.969Z,99.90
2018-12-02T14:01:06.715Z,99.90
2018-12-02T14:03:38.750Z,99.90
2018-12-02T14:06:09.196Z,99.90
2018-12-02T14:08:41.872Z,99.90
2018-12-02T14:11:20.401Z,99.90
2018-12-02T14:14:09.758Z,99.90
2018-12-02T14:16:42.631Z,99.90
2018-12-02T14:19:20.947Z,99.90
2018-12-02T14:21:51.274Z,99.90
2018-12-02T14:24:27.799Z,99.90
2018-12-02T14:27:04.280Z,99.90
2018-12-02T14:29:37.994Z,99.90
2018-12-02T14:32:13.907Z,99.90
2018-12-02T14:34:45.129Z,99.90
2018-12-02T14:37:17.312Z,99.90
2018-12-02T14:39:47.330Z,99.90
2018-12-02T14:42:20.770Z,99.90
2018-12-02T14:44:52.912Z,99.90
2018-12-02T14:47:31.733Z,99.90
2018-12-02T14:50:01.562Z,99.90
2018-12-02T14:52:46.928Z,99.90
2018-12-02T14:55:18.187Z,99.90
2018-12-02T14:58:03.498Z,99.90
2018-12-02T15:00:33.714Z,99.90
2018-12-02T15:03:05.390Z,99.90
2018-12-02T15:05:38.723Z,99.90
2018-12-02T15:08:10.251Z,99.90
2018-12-02T15:10:41.392Z,99.90
2018-12-02T15:13:11.242Z,99.90
2018-12-02T15:15:41.274Z,99.90
2018-12-02T15:18:10.899Z,99.90
2018-12-02T15:20:42.070Z,99.90
2018-12-02T15:23:12.454Z,99.90
2018-12-02T15:25:45.524Z,99.90
2018-12-02T15:28:15.236Z,99.90
2018-12-02T15:30:58.977Z,99.90
2018-12-02T15:33:28.861Z,99.90
2018-12-02T15:36:02.240Z,99.90
2018-12-02T15:38:32.021Z,99.90
2018-12-02T15:41:07.623Z,99.90
2018-12-02T15:43:37.374Z,99.90
2018-12-02T15:46:11.223Z,99.90
2018-12-02T15:48:41.021Z,99.90
2018-12-02T15:51:21.163Z,99.90
2018-12-02T15:53:51.152Z,99.90
2018-12-02T15:56:33.443Z,99.90
2018-12-02T15:59:07.927Z,99.90
2018-12-02T16:01:39.226Z,99.90
2018-12-02T16:04:10.747Z,99.90
2018-12-02T16:06:40.735Z,99.90
2018-12-02T16:09:11.250Z,99.90
2018-12-02T16:11:41.025Z,99.90
2018-12-02T16:14:12.429Z,99.90
2018-12-02T16:16:42.373Z,99.90
2018-12-02T16:19:21.822Z,99.90
2018-12-02T16:21:51.754Z,99.90
2018-12-02T16:24:27.454Z,99.90
2018-12-02T16:26:57.768Z,99.90
2018-12-02T16:29:40.213Z,99.90
2018-12-02T16:32:10.027Z,99.90
2018-12-02T16:34:47.234Z,99.90
2018-12-02T16:37:17.024Z,99.90
2018-12-02T16:39:48.050Z,99.90
2018-12-02T16:42:21.729Z,99.90
2018-12-02T16:44:52.976Z,99.90
2018-12-02T16:47:22.871Z,99.90
2018-12-02T16:49:52.550Z,99.90
2018-12-02T16:52:24.440Z,99.90
2018-12-02T16:54:54.788Z,99.90
2018-12-02T16:57:31.187Z,99.90
2018-12-02T17:00:08.659Z,99.90
2018-12-02T17:02:47.934Z,99.90
2018-12-02T17:05:19.511Z,99.90
2018-12-02T17:07:49.434Z,99.90
2018-12-02T17:10:24.625Z,99.90
2018-12-02T17:12:54.657Z,99.90
2018-12-02T17:15:24.424Z,99.90
2018-12-02T17:17:55.607Z,99.90
2018-12-02T17:20:26.375Z,99.90
2018-12-02T17:23:08.267Z,99.90
2018-12-02T17:25:38.033Z,99.90
2018-12-02T17:28:28.870Z,99.90
2018-12-02T17:30:59.171Z,99.90
2018-12-02T17:33:31.669Z,99.90
2018-12-02T17:36:01.381Z,99.90
2018-12-02T17:38:32.741Z,99.90
2018-12-02T17:41:02.590Z,99.90
2018-12-02T17:43:32.294Z,99.90
2018-12-02T17:46:02.356Z,99.90
2018-12-02T17:48:32.021Z,99.90
2018-12-02T17:51:03.875Z,99.90
2018-12-02T17:53:34.678Z,99.90
2018-12-02T17:56:12.140Z,99.90
2018-12-02T17:58:41.955Z,99.90
2018-12-02T18:01:12.269Z,99.90
2018-12-02T18:03:42.068Z,99.90
2018-12-02T18:06:11.891Z,99.90
2018-12-02T18:08:41.899Z,99.90
2018-12-02T18:11:11.691Z,99.90
2018-12-02T18:13:42.079Z,99.90
2018-12-02T18:16:12.372Z,99.90
2018-12-02T18:18:42.243Z,99.90
2018-12-02T18:21:15.872Z,99.90
2018-12-02T18:23:45.731Z,99.90
2018-12-02T18:26:15.734Z,99.90
2018-12-02T18:28:45.542Z,99.90
2018-12-02T18:31:15.262Z,99.90
2018-12-02T18:33:54.937Z,99.90
2018-12-02T18:36:28.389Z,99.90
2018-12-02T18:38:58.854Z,99.90
2018-12-02T18:41:33.392Z,99.90
2018-12-02T18:44:04.901Z,99.90
2018-12-02T18:46:35.054Z,99.90
2018-12-02T18:49:15.653Z,99.90
2018-12-02T18:51:45.348Z,99.90
2018-12-02T18:54:19.938Z,99.90
2018-12-02T18:56:49.658Z,99.90
2018-12-02T18:59:21.496Z,99.90
2018-12-02T19:01:51.792Z,99.90
2018-12-02T19:04:25.141Z,99.90
2018-12-02T19:06:58.569Z,99.90
2018-12-02T19:09:26.608Z,99.90
2018-12-02T19:12:00.411Z,99.90
2018-12-02T19:14:30.705Z,99.90
2018-12-02T19:17:01.761Z,99.90
2018-12-02T19:19:31.982Z,99.90
2018-12-02T19:22:01.752Z,99.90
2018-12-02T19:24:32.691Z,99.90
2018-12-02T19:27:02.461Z,99.90
2018-12-02T19:29:32.126Z,99.90
2018-12-02T19:32:01.857Z,99.90
2018-12-02T19:34:31.852Z,99.90
2018-12-02T19:37:04.436Z,99.90
2018-12-02T19:39:34.459Z,99.90
2018-12-02T19:42:04.170Z,99.90
2018-12-02T19:44:33.886Z,99.90
2018-12-02T19:47:05.691Z,99.90
2018-12-02T19:49:36.127Z,99.90
2018-12-02T19:52:05.375Z,99.90
2018-12-02T19:54:35.153Z,99.90
2018-12-02T19:57:05.262Z,99.90
2018-12-02T19:59:35.505Z,99.90
2018-12-02T20:02:07.739Z,99.90
2018-12-02T20:04:37.445Z,99.90
2018-12-02T20:07:07.288Z,99.90
2018-12-02T20:09:48.401Z,99.90
2018-12-02T20:12:18.023Z,99.90
2018-12-02T20:14:48.308Z,99.90
2018-12-02T20:17:18.133Z,99.90
2018-12-02T20:19:53.634Z,99.90
2018-12-02T20:22:24.202Z,99.90
2018-12-02T20:24:55.130Z,99.90
2018-12-02T20:27:25.414Z,99.90
2018-12-02T20:29:56.283Z,99.90
2018-12-02T20:35:21.552Z,99.90
2018-12-02T20:37:51.040Z,99.90
2018-12-02T20:40:21.732Z,99.90
2018-12-02T20:42:52.077Z,99.90
2018-12-02T20:45:21.610Z,99.90
2018-12-02T20:47:55.027Z,99.90
2018-12-02T20:50:25.257Z,99.90
2018-12-02T20:52:55.089Z,99.90
2018-12-02T20:55:26.695Z,99.90
2018-12-02T20:57:58.019Z,99.90
2018-12-02T21:00:28.312Z,99.90
2018-12-02T21:03:01.468Z,99.90
2018-12-02T21:05:55.910Z,99.90
2018-12-02T21:08:28.429Z,99.90
2018-12-02T21:11:03.486Z,99.90
2018-12-02T21:13:33.200Z,99.90
2018-12-02T21:16:03.528Z,99.90
2018-12-02T21:18:33.038Z,99.90
2018-12-02T21:21:02.756Z,99.90
2018-12-02T21:23:33.012Z,99.90
2018-12-02T21:26:04.374Z,99.90
2018-12-02T21:28:35.173Z,99.90
2018-12-02T21:31:06.554Z,99.90
2018-12-02T21:33:36.814Z,99.90
2018-12-02T21:36:07.302Z,99.90
2018-12-02T21:38:37.222Z,99.90
2018-12-02T21:41:07.606Z,99.90
2018-12-02T21:43:37.309Z,99.90
2018-12-02T21:46:08.060Z,99.90
2018-12-02T21:48:39.116Z,99.90
2018-12-02T21:51:15.884Z,99.90
2018-12-02T21:53:45.595Z,99.90
2018-12-02T21:56:15.379Z,99.90
2018-12-02T21:58:45.092Z,99.90
2018-12-02T22:01:19.669Z,99.90
2018-12-02T22:03:50.812Z,99.90
2018-12-02T22:06:20.589Z,99.90
2018-12-02T22:08:50.949Z,99.90
2018-12-02T22:11:21.177Z,99.90
2018-12-02T22:13:51.907Z,99.90
2018-12-02T22:16:21.547Z,99.90
2018-12-02T22:18:51.412Z,99.90
2018-12-02T22:21:24.101Z,99.90
2018-12-02T22:24:02.053Z,99.90
2018-12-02T22:26:32.871Z,99.90
2018-12-02T22:29:03.094Z,99.90
2018-12-02T22:31:32.743Z,99.90
2018-12-02T22:34:02.443Z,99.90
2018-12-02T22:36:32.771Z,99.90
2018-12-02T22:39:02.443Z,99.90
2018-12-02T22:41:32.257Z,99.90
2018-12-02T22:44:05.413Z,99.90
2018-12-02T22:46:35.568Z,99.90
2018-12-02T22:49:05.769Z,99.90
2018-12-02T22:51:35.490Z,99.90
2018-12-02T22:54:05.498Z,99.90
2018-12-02T22:56:35.633Z,99.90
2018-12-02T22:59:07.216Z,99.90
2018-12-02T23:01:43.598Z,99.90
2018-12-02T23:04:13.834Z,99.90
2018-12-02T23:06:44.108Z,99.90
2018-12-02T23:09:13.773Z,99.90
2018-12-02T23:11:43.511Z,99.90
2018-12-02T23:14:15.195Z,99.90
2018-12-02T23:16:54.841Z,99.90
2018-12-02T23:19:25.159Z,99.90
2018-12-02T23:21:54.872Z,99.90
2018-12-02T23:24:24.694Z,99.90
2018-12-02T23:27:02.103Z,99.90
2018-12-02T23:29:33.124Z,99.90
2018-12-02T23:32:02.915Z,99.90
2018-12-02T23:34:32.727Z,99.90
2018-12-02T23:37:04.182Z,99.90
2018-12-02T23:39:33.956Z,99.90
2018-12-02T23:42:04.140Z,99.90
2018-12-02T23:44:34.320Z,99.90
2018-12-02T23:47:13.313Z,99.90
2018-12-02T23:49:44.714Z,99.90
2018-12-02T23:52:14.449Z,99.90
2018-12-02T23:54:44.178Z,99.90
2018-12-02T23:57:16.638Z,99.90
2018-12-02T23:59:47.546Z,99.90
